Time;durP1;ratioP1;P1;durP2;ratioP2;P2;SDS_P1;SDS_P2;PMS_P1;PMS_P2;Temp;Humidity;BMP_temperature;BMP_pressure;BME280_temperature;BME280_humidity;BME280_pressure;Samples;Min_cycle;Max_cycle;Signal;HPM_P1;HPM_P2
2024/01/18 00:00:39;;;;;;;22.95;15.82;;;;;;;;;;5079244;28;20097;-81
2024/01/18 00:03:05;;;;;;;23.38;18.67;;;;;;;;;;5112960;28;20087;-81
2024/01/18 00:05:31;;;;;;;18.88;16.33;;;;;;;;;;5112871;28;20047;-80
2024/01/18 00:07:57;;;;;;;20.98;16.48;;;;;;;;;;5095935;28;20130;-80
2024/01/18 00:10:26;;;;;;;22.58;17.88;;;;;;;;;;5079344;28;20090;-80
2024/01/18 00:12:52;;;;;;;18.73;16.48;;;;;;;;;;5113754;28;20043;-80
2024/01/18 00:15:18;;;;;;;23.80;18.23;;;;;;;;;;5112796;28;20051;-80
2024/01/18 00:17:45;;;;;;;19.80;16.48;;;;;;;;;;5095548;28;20138;-81
2024/01/18 00:20:11;;;;;;;20.85;16.67;;;;;;;;;;5112642;28;20050;-81
2024/01/18 00:22:37;;;;;;;18.85;16.73;;;;;;;;;;5112552;28;20078;-80
2024/01/18 00:25:03;;;;;;;23.65;17.90;;;;;;;;;;5095791;28;20506;-80
2024/01/18 00:27:29;;;;;;;21.00;17.48;;;;;;;;;;5113257;28;20048;-80
2024/01/18 00:29:55;;;;;;;19.52;16.48;;;;;;;;;;5096451;28;20059;-80
2024/01/18 00:32:22;;;;;;;19.20;16.67;;;;;;;;;;5095723;28;20047;-80
2024/01/18 00:34:48;;;;;;;21.20;17.10;;;;;;;;;;5079311;28;20131;-81
2024/01/18 00:37:14;;;;;;;21.27;16.50;;;;;;;;;;5095399;28;20050;-80
2024/01/18 00:39:43;;;;;;;22.50;17.05;;;;;;;;;;5112632;28;20044;-80
2024/01/18 00:42:10;;;;;;;19.60;15.75;;;;;;;;;;5095449;28;20479;-81
2024/01/18 00:44:36;;;;;;;19.27;16.73;;;;;;;;;;5095745;28;20047;-80
2024/01/18 00:47:02;;;;;;;24.70;17.48;;;;;;;;;;5114170;28;20054;-81
2024/01/18 00:49:29;;;;;;;21.73;16.35;;;;;;;;;;5099546;28;20079;-81
2024/01/18 00:51:55;;;;;;;19.70;17.17;;;;;;;;;;5099101;28;20047;-80
2024/01/18 00:54:21;;;;;;;21.02;17.25;;;;;;;;;;5098574;28;20143;-80
2024/01/18 00:56:47;;;;;;;18.60;16.55;;;;;;;;;;5098870;28;20131;-81
2024/01/18 00:59:13;;;;;;;18.77;16.45;;;;;;;;;;5098963;28;20043;-80
2024/01/18 01:01:39;;;;;;;19.08;15.32;;;;;;;;;;5099120;28;20472;-80
2024/01/18 01:04:05;;;;;;;23.65;16.92;;;;;;;;;;5115728;28;20094;-80
2024/01/18 01:06:31;;;;;;;20.42;16.83;;;;;;;;;;5116796;28;20089;-81
2024/01/18 01:08:57;;;;;;;21.95;16.40;;;;;;;;;;5115773;28;20083;-81
2024/01/18 01:11:23;;;;;;;20.33;14.93;;;;;;;;;;5098844;28;20387;-81
2024/01/18 01:13:50;;;;;;;17.23;14.77;;;;;;;;;;5098781;28;20050;-81
2024/01/18 01:16:16;;;;;;;20.77;14.77;;;;;;;;;;5115085;28;20130;-81
2024/01/18 01:18:42;;;;;;;18.40;14.48;;;;;;;;;;5115459;28;20039;-81
2024/01/18 01:21:08;;;;;;;19.10;14.32;;;;;;;;;;5098621;28;20062;-81
2024/01/18 01:23:40;;;;;;;20.23;13.90;;;;;;;;;;5098717;28;20054;-81
2024/01/18 01:26:08;;;;;;;19.70;13.57;;;;;;;;;;5116170;28;20243;-81
2024/01/18 01:28:34;;;;;;;16.75;13.00;;;;;;;;;;5098715;28;20391;-80
2024/01/18 01:31:00;;;;;;;18.00;13.25;;;;;;;;;;5098491;28;20075;-81
2024/01/18 01:33:28;;;;;;;17.58;12.68;;;;;;;;;;5115965;28;20047;-81
2024/01/18 01:35:54;;;;;;;15.85;12.75;;;;;;;;;;5098505;28;20043;-81
2024/01/18 01:38:20;;;;;;;13.05;11.73;;;;;;;;;;5114874;28;20048;-81
2024/01/18 01:40:46;;;;;;;14.10;12.60;;;;;;;;;;5114987;28;20043;-81
2024/01/18 01:43:13;;;;;;;17.42;13.02;;;;;;;;;;5098207;28;20075;-81
2024/01/18 01:45:39;;;;;;;15.60;11.98;;;;;;;;;;5115113;28;20050;-81
2024/01/18 01:48:07;;;;;;;18.67;13.32;;;;;;;;;;5097577;28;20039;-81
2024/01/18 01:50:33;;;;;;;12.88;11.00;;;;;;;;;;5098098;28;20126;-81
2024/01/18 01:52:59;;;;;;;18.40;11.38;;;;;;;;;;5098335;27;20480;-81
2024/01/18 01:55:25;;;;;;;14.02;10.20;;;;;;;;;;5118957;27;20050;-81
2024/01/18 01:57:51;;;;;;;12.27;8.98;;;;;;;;;;5116985;28;20078;-81
2024/01/18 02:00:18;;;;;;;12.32;8.23;;;;;;;;;;5101702;27;20096;-81
2024/01/18 02:02:45;;;;;;;12.75;7.32;;;;;;;;;;5118118;27;20043;-81
2024/01/18 02:05:12;;;;;;;12.65;7.47;;;;;;;;;;5118090;27;20111;-81
2024/01/18 02:07:38;;;;;;;9.85;6.70;;;;;;;;;;5118029;27;20043;-81
2024/01/18 02:10:05;;;;;;;10.73;5.78;;;;;;;;;;5117965;27;20043;-81
2024/01/18 02:12:32;;;;;;;9.45;5.70;;;;;;;;;;5117973;27;20051;-81
2024/01/18 02:14:58;;;;;;;9.07;4.70;;;;;;;;;;5100881;27;20055;-81
2024/01/18 02:17:24;;;;;;;8.38;5.00;;;;;;;;;;5117266;27;20048;-81
2024/01/18 02:19:50;;;;;;;10.35;4.43;;;;;;;;;;5117859;27;20130;-81
2024/01/18 02:22:17;;;;;;;6.63;4.30;;;;;;;;;;5101166;27;20043;-81
2024/01/18 02:24:49;;;;;;;7.10;5.03;;;;;;;;;;5117499;27;20130;-81
2024/01/18 02:27:15;;;;;;;9.27;4.43;;;;;;;;;;5117766;27;20051;-80
2024/01/18 02:29:41;;;;;;;8.07;4.22;;;;;;;;;;5117638;27;20092;-81
2024/01/18 02:32:07;;;;;;;9.63;4.10;;;;;;;;;;5100572;27;20051;-81
2024/01/18 02:34:39;;;;;;;10.95;4.32;;;;;;;;;;5117601;27;20062;-81
2024/01/18 02:37:05;;;;;;;5.45;3.55;;;;;;;;;;5117451;27;20086;-81
2024/01/18 02:39:32;;;;;;;12.07;3.90;;;;;;;;;;5100894;27;20046;-81
2024/01/18 02:41:58;;;;;;;9.55;3.75;;;;;;;;;;5117126;27;20130;-81
2024/01/18 02:44:25;;;;;;;10.27;4.32;;;;;;;;;;5117392;27;20050;-81
2024/01/18 02:46:52;;;;;;;6.40;3.28;;;;;;;;;;5099621;27;20506;-82
2024/01/18 02:49:18;;;;;;;7.15;3.38;;;;;;;;;;5101197;27;20383;-81
2024/01/18 02:51:44;;;;;;;5.18;3.05;;;;;;;;;;5082934;27;20055;-81
2024/01/18 02:54:11;;;;;;;8.35;3.15;;;;;;;;;;5116928;27;20082;-81
2024/01/18 02:56:40;;;;;;;6.20;2.92;;;;;;;;;;5116958;27;20046;-81
2024/01/18 02:59:06;;;;;;;4.25;2.50;;;;;;;;;;5099594;27;20043;-81
2024/01/18 03:01:32;;;;;;;5.90;2.55;;;;;;;;;;5082816;27;20051;-81
2024/01/18 03:03:58;;;;;;;6.38;2.05;;;;;;;;;;5116769;27;20039;-81
2024/01/18 03:06:24;;;;;;;5.13;1.67;;;;;;;;;;5116913;27;20047;-81
2024/01/18 03:08:50;;;;;;;3.65;2.53;;;;;;;;;;5116595;27;20050;-81
2024/01/18 03:11:17;;;;;;;3.80;1.88;;;;;;;;;;5100085;27;20046;-81
2024/01/18 03:13:43;;;;;;;6.53;2.47;;;;;;;;;;5099863;27;20046;-81
2024/01/18 03:16:09;;;;;;;2.95;1.40;;;;;;;;;;5099174;27;20057;-82
2024/01/18 03:18:35;;;;;;;3.15;1.50;;;;;;;;;;5117066;27;20500;-81
2024/01/18 03:21:05;;;;;;;3.72;1.42;;;;;;;;;;5116813;27;20043;-81
2024/01/18 03:23:31;;;;;;;5.90;1.38;;;;;;;;;;5099843;28;20046;-81
2024/01/18 03:25:57;;;;;;;2.65;0.90;;;;;;;;;;5116560;28;20130;-81
2024/01/18 03:28:23;;;;;;;5.15;1.42;;;;;;;;;;5099570;27;20053;-81
2024/01/18 03:30:49;;;;;;;3.35;0.82;;;;;;;;;;5099446;27;20043;-81
2024/01/18 03:33:15;;;;;;;4.00;0.90;;;;;;;;;;5099534;27;20394;-81
2024/01/18 03:35:42;;;;;;;2.50;0.90;;;;;;;;;;5116348;27;20041;-81
2024/01/18 03:38:08;;;;;;;5.43;0.80;;;;;;;;;;5099508;28;20073;-81
2024/01/18 03:40:35;;;;;;;2.72;1.05;;;;;;;;;;5115990;28;20395;-81
2024/01/18 03:43:01;;;;;;;2.53;0.57;;;;;;;;;;5116428;28;20039;-81
2024/01/18 03:45:27;;;;;;;2.30;0.60;;;;;;;;;;5116521;28;20043;-81
2024/01/18 03:47:53;;;;;;;3.47;0.70;;;;;;;;;;5099232;28;20083;-81
2024/01/18 03:50:19;;;;;;;4.38;0.70;;;;;;;;;;5116443;28;20103;-81
2024/01/18 03:52:45;;;;;;;5.20;0.65;;;;;;;;;;5116222;28;20494;-79
2024/01/18 03:55:11;;;;;;;2.45;0.88;;;;;;;;;;5116132;28;20154;-79
2024/01/18 03:57:39;;;;;;;3.30;1.05;;;;;;;;;;5115999;28;20130;-79
2024/01/18 04:00:05;;;;;;;4.05;0.95;;;;;;;;;;5099280;28;20058;-79
2024/01/18 04:02:31;;;;;;;3.05;0.77;;;;;;;;;;5116297;28;20043;-79
2024/01/18 04:04:57;;;;;;;4.45;0.90;;;;;;;;;;5099546;28;20180;-82
2024/01/18 04:07:23;;;;;;;3.65;1.40;;;;;;;;;;5116327;28;20047;-80
2024/01/18 04:09:49;;;;;;;6.63;1.35;;;;;;;;;;5099310;28;20039;-80
2024/01/18 04:12:16;;;;;;;4.30;1.08;;;;;;;;;;5082587;28;20043;-80
2024/01/18 04:14:45;;;;;;;4.30;1.23;;;;;;;;;;5099182;28;20504;-80
2024/01/18 04:17:12;;;;;;;2.55;0.88;;;;;;;;;;5082073;28;20046;-81
2024/01/18 04:19:41;;;;;;;5.90;1.35;;;;;;;;;;5116111;28;20486;-80
2024/01/18 04:22:07;;;;;;;2.60;1.08;;;;;;;;;;5118206;27;20050;-80
2024/01/18 04:24:33;;;;;;;3.92;1.20;;;;;;;;;;5119598;27;20051;-81
2024/01/18 04:27:00;;;;;;;2.38;0.98;;;;;;;;;;5086098;27;20047;-80
2024/01/18 04:29:28;;;;;;;2.78;0.90;;;;;;;;;;5119949;27;20043;-80
2024/01/18 04:31:54;;;;;;;4.90;1.13;;;;;;;;;;5119921;27;20047;-80
2024/01/18 04:34:20;;;;;;;2.80;0.93;;;;;;;;;;5102926;27;20094;-80
2024/01/18 04:36:46;;;;;;;2.80;0.90;;;;;;;;;;5119710;27;20399;-81
2024/01/18 04:39:14;;;;;;;2.28;1.00;;;;;;;;;;5102781;27;20046;-81
2024/01/18 04:41:40;;;;;;;3.90;0.70;;;;;;;;;;5119788;27;20047;-80
2024/01/18 04:44:06;;;;;;;4.50;0.82;;;;;;;;;;5119715;27;20529;-80
2024/01/18 04:46:32;;;;;;;4.65;0.93;;;;;;;;;;5102784;27;20095;-81
2024/01/18 04:48:58;;;;;;;2.65;0.80;;;;;;;;;;5103186;27;20047;-80
2024/01/18 04:51:24;;;;;;;3.60;0.68;;;;;;;;;;5119547;27;20130;-80
2024/01/18 04:53:50;;;;;;;2.55;0.50;;;;;;;;;;5102117;27;20130;-81
2024/01/18 04:56:18;;;;;;;4.03;0.98;;;;;;;;;;5102379;27;20108;-80
2024/01/18 04:58:44;;;;;;;5.88;1.02;;;;;;;;;;5118845;27;20143;-81
2024/01/18 05:01:10;;;;;;;4.05;0.93;;;;;;;;;;5101743;27;20134;-81
2024/01/18 05:03:36;;;;;;;4.55;0.88;;;;;;;;;;5119293;27;20039;-80
2024/01/18 05:06:02;;;;;;;2.67;1.00;;;;;;;;;;5119249;27;20082;-80
2024/01/18 05:08:29;;;;;;;2.25;0.60;;;;;;;;;;5102061;27;20045;-80
2024/01/18 05:10:55;;;;;;;3.28;0.77;;;;;;;;;;5101996;27;20051;-81
2024/01/18 05:13:24;;;;;;;5.47;0.80;;;;;;;;;;5102593;27;20052;-80
2024/01/18 05:15:50;;;;;;;2.03;0.50;;;;;;;;;;5102057;27;20407;-80
2024/01/18 05:18:16;;;;;;;6.53;1.05;;;;;;;;;;5118471;27;20122;-81
2024/01/18 05:20:42;;;;;;;2.35;0.70;;;;;;;;;;5119003;27;20039;-81
2024/01/18 05:23:08;;;;;;;2.10;0.73;;;;;;;;;;5119027;27;20104;-80
2024/01/18 05:25:34;;;;;;;9.05;0.90;;;;;;;;;;5085111;27;20050;-80
2024/01/18 05:28:01;;;;;;;2.38;0.60;;;;;;;;;;5101886;27;20467;-80
2024/01/18 05:30:27;;;;;;;2.63;0.50;;;;;;;;;;5118544;27;20479;-80
2024/01/18 05:32:54;;;;;;;1.88;0.43;;;;;;;;;;5101596;27;20388;-80
2024/01/18 05:35:20;;;;;;;2.55;0.50;;;;;;;;;;5118826;27;20403;-80
2024/01/18 05:37:46;;;;;;;3.00;0.45;;;;;;;;;;5118297;27;20134;-81
2024/01/18 05:40:12;;;;;;;3.92;0.50;;;;;;;;;;5118673;27;20084;-80
2024/01/18 05:42:38;;;;;;;1.27;0.40;;;;;;;;;;5118608;27;20135;-80
2024/01/18 05:45:06;;;;;;;0.90;0.38;;;;;;;;;;5118539;27;20526;-80
2024/01/18 05:47:32;;;;;;;2.25;0.52;;;;;;;;;;5117943;27;20047;-81
2024/01/18 05:49:58;;;;;;;0.98;0.25;;;;;;;;;;5118357;27;20049;-80
2024/01/18 05:52:24;;;;;;;2.13;0.30;;;;;;;;;;5101315;27;20043;-81
2024/01/18 05:54:51;;;;;;;6.25;0.70;;;;;;;;;;5117887;27;20051;-80
2024/01/18 05:57:18;;;;;;;2.03;0.40;;;;;;;;;;5117987;27;20046;-80
2024/01/18 05:59:44;;;;;;;2.90;0.30;;;;;;;;;;5118321;27;20446;-80
2024/01/18 06:02:10;;;;;;;2.85;0.30;;;;;;;;;;5100991;27;20063;-80
2024/01/18 06:04:36;;;;;;;0.93;0.35;;;;;;;;;;5101232;27;20451;-80
2024/01/18 06:07:02;;;;;;;3.35;0.40;;;;;;;;;;5117873;27;20467;-81
2024/01/18 06:09:29;;;;;;;3.75;0.32;;;;;;;;;;5118094;27;20043;-80
2024/01/18 06:11:55;;;;;;;2.13;0.30;;;;;;;;;;5132428;27;20107;-80
2024/01/18 06:14:21;;;;;;;3.22;0.38;;;;;;;;;;5124080;27;20491;-80
2024/01/18 06:16:47;;;;;;;3.58;0.50;;;;;;;;;;5117646;27;20138;-81
2024/01/18 06:19:13;;;;;;;3.00;0.40;;;;;;;;;;5100866;27;20480;-80
2024/01/18 06:21:41;;;;;;;1.85;0.30;;;;;;;;;;5100788;27;20047;-80
2024/01/18 06:24:07;;;;;;;1.77;0.30;;;;;;;;;;5117803;27;20047;-80
2024/01/18 06:26:33;;;;;;;2.25;0.40;;;;;;;;;;5100723;27;20043;-80
2024/01/18 06:28:59;;;;;;;2.45;0.30;;;;;;;;;;5117328;27;20068;-81
2024/01/18 06:31:27;;;;;;;1.58;0.38;;;;;;;;;;5100456;27;20055;-80
2024/01/18 06:33:56;;;;;;;3.70;0.20;;;;;;;;;;5100900;27;20047;-80
2024/01/18 06:36:22;;;;;;;0.57;0.20;;;;;;;;;;5117276;27;20065;-80
2024/01/18 06:38:51;;;;;;;1.58;0.20;;;;;;;;;;5117522;27;20043;-80
2024/01/18 06:41:19;;;;;;;1.48;0.20;;;;;;;;;;5117378;27;20053;-80
2024/01/18 06:43:46;;;;;;;2.25;0.20;;;;;;;;;;5116709;27;20051;-80
2024/01/18 06:46:18;;;;;;;2.28;0.20;;;;;;;;;;5117346;27;20491;-80
2024/01/18 06:48:52;;;;;;;3.45;0.20;;;;;;;;;;5117183;27;20047;-80
2024/01/18 06:51:18;;;;;;;2.43;0.10;;;;;;;;;;5100382;27;20394;-80
2024/01/18 06:53:44;;;;;;;0.70;0.10;;;;;;;;;;5117165;27;20047;-80
2024/01/18 06:56:12;;;;;;;1.55;0.10;;;;;;;;;;5116833;27;20047;-80
2024/01/18 06:58:38;;;;;;;1.98;0.10;;;;;;;;;;5083440;27;20047;-81
2024/01/18 07:01:04;;;;;;;2.55;0.10;;;;;;;;;;5117080;27;20043;-81
2024/01/18 07:03:30;;;;;;;0.75;0.10;;;;;;;;;;5116786;27;20053;-81
2024/01/18 07:05:57;;;;;;;1.85;0.20;;;;;;;;;;5135212;27;20078;-80
2024/01/18 07:08:24;;;;;;;1.17;0.10;;;;;;;;;;5116924;27;20043;-81
2024/01/18 07:10:50;;;;;;;2.88;0.20;;;;;;;;;;5117067;27;20086;-80
2024/01/18 07:13:16;;;;;;;1.42;0.35;;;;;;;;;;5116630;27;20057;-80
2024/01/18 07:15:42;;;;;;;2.65;0.20;;;;;;;;;;5116364;27;20039;-80
2024/01/18 07:18:08;;;;;;;2.25;0.20;;;;;;;;;;5134563;27;20050;-81
2024/01/18 07:20:34;;;;;;;3.80;0.30;;;;;;;;;;5100183;27;20090;-84
2024/01/18 07:23:00;;;;;;;2.45;0.30;;;;;;;;;;5117685;27;20047;-81
2024/01/18 07:25:26;;;;;;;2.25;0.30;;;;;;;;;;5116491;27;20049;-81
2024/01/18 07:27:52;;;;;;;4.65;0.40;;;;;;;;;;5100175;27;20049;-81
2024/01/18 07:30:19;;;;;;;2.30;0.45;;;;;;;;;;5116624;28;20495;-81
2024/01/18 07:32:46;;;;;;;3.63;0.30;;;;;;;;;;5099791;27;20099;-85
2024/01/18 07:35:13;;;;;;;2.47;0.30;;;;;;;;;;5099776;27;20039;-81
2024/01/18 07:37:40;;;;;;;1.33;0.40;;;;;;;;;;5100467;27;20039;-85
2024/01/18 07:40:06;;;;;;;3.58;0.22;;;;;;;;;;5082740;28;20047;-84
2024/01/18 07:42:33;;;;;;;7.88;0.93;;;;;;;;;;5116530;28;20099;-81
2024/01/18 07:44:59;;;;;;;4.90;0.40;;;;;;;;;;5117684;28;20043;-87
2024/01/18 07:47:25;;;;;;;1.88;0.45;;;;;;;;;;5082125;28;20441;-82
2024/01/18 07:49:52;;;;;;;4.60;0.50;;;;;;;;;;5099336;28;20043;-81
2024/01/18 07:52:18;;;;;;;1.80;0.40;;;;;;;;;;5117091;28;20065;-87
2024/01/18 07:54:45;;;;;;;5.93;0.50;;;;;;;;;;5116113;27;20499;-81
2024/01/18 07:57:12;;;;;;;4.13;0.80;;;;;;;;;;5120168;27;20046;-80
2024/01/18 07:59:38;;;;;;;2.92;0.68;;;;;;;;;;5120619;27;20039;-80
2024/01/18 08:02:04;;;;;;;1.80;0.55;;;;;;;;;;5103771;27;20043;-80
2024/01/18 08:04:31;;;;;;;1.83;0.50;;;;;;;;;;5103368;27;20055;-84
2024/01/18 08:06:57;;;;;;;3.65;0.85;;;;;;;;;;5120722;27;20046;-83
2024/01/18 08:09:23;;;;;;;4.03;0.75;;;;;;;;;;5116216;28;20484;-81
2024/01/18 08:11:49;;;;;;;3.28;0.47;;;;;;;;;;5066702;28;20043;-82
2024/01/18 08:14:15;;;;;;;2.00;0.60;;;;;;;;;;5100029;28;20122;-81
2024/01/18 08:16:41;;;;;;;4.03;0.77;;;;;;;;;;5099236;28;20508;-81
2024/01/18 08:19:07;;;;;;;2.88;0.70;;;;;;;;;;5099908;28;20052;-79
2024/01/18 08:21:33;;;;;;;2.00;0.60;;;;;;;;;;5100212;28;20130;-80
2024/01/18 08:23:59;;;;;;;4.00;0.70;;;;;;;;;;5118361;28;20048;-80
2024/01/18 08:26:25;;;;;;;2.45;0.85;;;;;;;;;;5082642;28;20054;-80
2024/01/18 08:28:51;;;;;;;2.65;0.70;;;;;;;;;;5099666;28;20083;-80
2024/01/18 08:31:17;;;;;;;2.72;0.60;;;;;;;;;;5099670;28;20067;-80
2024/01/18 08:33:43;;;;;;;4.03;0.73;;;;;;;;;;5082766;28;20471;-80
2024/01/18 08:36:10;;;;;;;3.67;0.73;;;;;;;;;;5099319;28;20043;-81
2024/01/18 08:38:36;;;;;;;3.00;0.50;;;;;;;;;;5099475;28;20040;-81
2024/01/18 08:41:02;;;;;;;1.40;0.35;;;;;;;;;;5099499;28;20122;-80
2024/01/18 08:43:31;;;;;;;3.35;0.30;;;;;;;;;;5065957;28;20120;-81
2024/01/18 08:45:57;;;;;;;1.02;0.32;;;;;;;;;;5099371;28;20499;-80
2024/01/18 08:48:23;;;;;;;2.20;0.50;;;;;;;;;;5099181;28;20130;-80
2024/01/18 08:50:50;;;;;;;1.92;0.60;;;;;;;;;;5099293;28;20051;-80
2024/01/18 08:53:16;;;;;;;4.93;0.50;;;;;;;;;;5099005;28;20055;-80
2024/01/18 08:55:42;;;;;;;4.22;0.60;;;;;;;;;;5099115;28;20101;-80
2024/01/18 08:58:08;;;;;;;2.65;0.82;;;;;;;;;;5099132;28;20047;-80
2024/01/18 09:00:35;;;;;;;2.17;0.40;;;;;;;;;;5082285;28;20112;-79
2024/01/18 09:03:01;;;;;;;2.38;0.50;;;;;;;;;;5082226;28;20044;-79
2024/01/18 09:05:27;;;;;;;3.35;0.47;;;;;;;;;;5082161;28;20047;-79
2024/01/18 09:07:53;;;;;;;1.83;0.43;;;;;;;;;;5098398;28;20047;-81
2024/01/18 09:10:20;;;;;;;1.95;0.35;;;;;;;;;;5098870;28;20052;-79
2024/01/18 09:12:47;;;;;;;1.05;0.40;;;;;;;;;;5098992;28;20052;-79
2024/01/18 09:15:13;;;;;;;1.63;0.40;;;;;;;;;;5098541;28;20059;-79
2024/01/18 09:17:41;;;;;;;1.42;0.40;;;;;;;;;;5098139;28;20043;-79
2024/01/18 09:20:09;;;;;;;1.05;0.30;;;;;;;;;;5116941;28;20054;-79
2024/01/18 09:22:35;;;;;;;2.60;0.30;;;;;;;;;;5105318;27;20047;-80
2024/01/18 09:25:01;;;;;;;3.33;0.40;;;;;;;;;;5119075;27;20047;-79
2024/01/18 09:27:27;;;;;;;0.77;0.40;;;;;;;;;;5119163;27;20050;-79
2024/01/18 09:29:53;;;;;;;1.75;0.30;;;;;;;;;;5119022;27;20047;-79
2024/01/18 09:32:20;;;;;;;0.60;0.30;;;;;;;;;;5118905;27;20493;-79
2024/01/18 09:34:46;;;;;;;3.22;0.50;;;;;;;;;;5101957;27;20533;-79
2024/01/18 09:37:12;;;;;;;2.60;0.30;;;;;;;;;;5101565;27;20086;-80
2024/01/18 09:39:39;;;;;;;3.28;0.50;;;;;;;;;;5118791;27;20102;-79
2024/01/18 09:42:09;;;;;;;1.77;0.40;;;;;;;;;;5118714;27;20055;-79
2024/01/18 09:44:39;;;;;;;4.38;0.47;;;;;;;;;;5118419;27;20126;-80
2024/01/18 09:47:05;;;;;;;3.10;0.35;;;;;;;;;;5118174;27;20153;-80
2024/01/18 09:49:33;;;;;;;2.08;0.60;;;;;;;;;;5118845;27;20395;-79
2024/01/18 09:52:00;;;;;;;1.55;0.40;;;;;;;;;;5101527;27;20047;-79
2024/01/18 09:54:26;;;;;;;1.30;0.40;;;;;;;;;;5101228;27;20407;-79
2024/01/18 09:56:54;;;;;;;4.28;0.32;;;;;;;;;;5117982;27;20050;-79
2024/01/18 09:59:21;;;;;;;2.92;0.50;;;;;;;;;;5118682;27;20123;-79
2024/01/18 10:01:48;;;;;;;2.88;0.40;;;;;;;;;;5136626;27;20043;-79
2024/01/18 10:04:14;;;;;;;3.42;0.50;;;;;;;;;;5101368;27;20051;-80
2024/01/18 10:06:41;;;;;;;2.80;0.40;;;;;;;;;;5118689;27;20047;-79
2024/01/18 10:09:11;;;;;;;3.28;0.50;;;;;;;;;;5118137;27;20046;-80
2024/01/18 10:11:46;;;;;;;3.00;0.40;;;;;;;;;;5136201;27;20135;-80
2024/01/18 10:14:13;;;;;;;4.00;0.45;;;;;;;;;;5118287;27;20043;-80
2024/01/18 10:16:40;;;;;;;2.90;0.40;;;;;;;;;;5117470;27;20129;-81
2024/01/18 10:19:07;;;;;;;1.88;0.50;;;;;;;;;;5100099;27;20055;-79
2024/01/18 10:21:34;;;;;;;3.30;0.40;;;;;;;;;;5136002;27;20055;-80
2024/01/18 10:24:01;;;;;;;3.15;0.50;;;;;;;;;;5101126;27;20047;-80
2024/01/18 10:26:28;;;;;;;4.80;0.50;;;;;;;;;;5118130;27;20051;-80
2024/01/18 10:28:54;;;;;;;0.90;0.43;;;;;;;;;;5117928;27;20047;-79
2024/01/18 10:31:20;;;;;;;3.35;0.40;;;;;;;;;;5117788;27;20134;-80
2024/01/18 10:33:49;;;;;;;2.45;0.20;;;;;;;;;;5117982;27;20063;-79
2024/01/18 10:36:15;;;;;;;4.75;0.30;;;;;;;;;;5135841;27;20046;-79
2024/01/18 10:38:41;;;;;;;1.63;0.30;;;;;;;;;;5134979;27;20054;-80
2024/01/18 10:41:08;;;;;;;1.35;0.30;;;;;;;;;;5135421;27;20043;-80
2024/01/18 10:43:34;;;;;;;2.05;0.50;;;;;;;;;;5117298;27;20039;-79
2024/01/18 10:46:00;;;;;;;3.10;0.35;;;;;;;;;;5135500;27;20062;-79
2024/01/18 10:48:27;;;;;;;2.33;0.20;;;;;;;;;;5099622;27;20103;-79
2024/01/18 10:50:56;;;;;;;1.65;0.30;;;;;;;;;;5117654;27;20130;-80
2024/01/18 10:53:26;;;;;;;2.85;0.30;;;;;;;;;;5135215;27;20130;-79
2024/01/18 10:55:52;;;;;;;4.25;0.30;;;;;;;;;;5117231;27;20541;-79
2024/01/18 10:58:22;;;;;;;2.38;0.38;;;;;;;;;;5117482;27;20047;-79
2024/01/18 11:00:48;;;;;;;3.38;0.20;;;;;;;;;;5100347;27;20046;-78
2024/01/18 11:03:15;;;;;;;1.27;0.25;;;;;;;;;;5117166;27;20079;-79
2024/01/18 11:05:45;;;;;;;2.53;0.30;;;;;;;;;;5117023;27;20501;-79
2024/01/18 11:08:11;;;;;;;4.65;0.30;;;;;;;;;;5134861;27;20047;-79
2024/01/18 11:10:38;;;;;;;1.52;0.30;;;;;;;;;;5134541;27;20051;-79
2024/01/18 11:13:04;;;;;;;2.38;0.40;;;;;;;;;;5116119;27;20130;-79
2024/01/18 11:15:31;;;;;;;2.40;0.20;;;;;;;;;;5116155;27;20081;-79
2024/01/18 11:18:00;;;;;;;2.20;0.30;;;;;;;;;;5115743;27;20043;-80
2024/01/18 11:20:26;;;;;;;3.22;0.40;;;;;;;;;;5116090;27;20047;-79
2024/01/18 11:22:58;;;;;;;2.35;0.50;;;;;;;;;;5116117;27;20051;-79
2024/01/18 11:25:28;;;;;;;3.42;0.60;;;;;;;;;;5116407;27;20050;-79
2024/01/18 11:27:54;;;;;;;4.90;0.85;;;;;;;;;;5116168;27;20490;-79
2024/01/18 11:30:34;;;;;;;0.85;0.20;;;;;;;;;;5116321;27;20050;-79
2024/01/18 11:33:01;;;;;;;2.08;0.30;;;;;;;;;;5116394;27;20051;-79
2024/01/18 11:35:27;;;;;;;2.80;0.30;;;;;;;;;;5116347;28;20072;-79
2024/01/18 11:37:53;;;;;;;1.42;0.20;;;;;;;;;;5115453;28;20039;-80
2024/01/18 11:40:19;;;;;;;2.42;0.28;;;;;;;;;;5116407;27;20055;-79
2024/01/18 11:42:45;;;;;;;0.73;0.13;;;;;;;;;;5138501;27;20054;-79
2024/01/18 11:45:18;;;;;;;2.20;0.17;;;;;;;;;;5144371;27;20082;-79
2024/01/18 11:47:45;;;;;;;0.70;0.10;;;;;;;;;;5098330;28;20050;-80
2024/01/18 11:50:11;;;;;;;1.77;0.20;;;;;;;;;;5116530;28;20083;-79
2024/01/18 11:52:40;;;;;;;2.83;0.40;;;;;;;;;;5116266;28;20039;-81
2024/01/18 11:55:06;;;;;;;4.32;0.20;;;;;;;;;;5115816;28;20477;-79
2024/01/18 11:57:32;;;;;;;3.13;0.65;;;;;;;;;;5099390;28;20051;-79
2024/01/18 11:59:59;;;;;;;2.67;0.40;;;;;;;;;;5116258;28;20085;-79
2024/01/18 12:02:28;;;;;;;2.03;0.50;;;;;;;;;;5134552;28;20120;-79
2024/01/18 12:04:54;;;;;;;0.70;0.22;;;;;;;;;;5114142;28;20047;-80
2024/01/18 12:07:21;;;;;;;4.38;0.40;;;;;;;;;;5131316;28;20048;-79
2024/01/18 12:09:47;;;;;;;5.30;0.77;;;;;;;;;;5115099;28;20047;-79
2024/01/18 12:12:13;;;;;;;1.45;0.20;;;;;;;;;;5098700;28;20047;-80
2024/01/18 12:14:40;;;;;;;0.93;0.20;;;;;;;;;;5115849;28;20047;-80
2024/01/18 12:17:07;;;;;;;2.05;0.30;;;;;;;;;;5115549;28;20043;-79
2024/01/18 12:19:35;;;;;;;3.70;0.30;;;;;;;;;;5116261;28;20039;-79
2024/01/18 12:22:01;;;;;;;1.40;0.20;;;;;;;;;;5099087;28;20051;-79
2024/01/18 12:24:28;;;;;;;1.27;0.15;;;;;;;;;;5134215;28;20047;-79
2024/01/18 12:26:54;;;;;;;1.45;0.20;;;;;;;;;;5134278;28;20179;-79
2024/01/18 12:29:22;;;;;;;0.60;0.20;;;;;;;;;;5134510;28;20043;-79
2024/01/18 12:31:49;;;;;;;1.00;0.10;;;;;;;;;;5115854;28;20131;-80
2024/01/18 12:34:16;;;;;;;1.17;0.10;;;;;;;;;;5116365;28;20073;-80
2024/01/18 12:36:43;;;;;;;0.40;0.10;;;;;;;;;;5134112;28;20039;-79
2024/01/18 12:39:12;;;;;;;2.20;0.25;;;;;;;;;;5131041;27;20046;-81
2024/01/18 12:41:39;;;;;;;1.17;0.10;;;;;;;;;;5119064;27;20390;-81
2024/01/18 12:44:08;;;;;;;2.05;0.10;;;;;;;;;;5139968;27;20046;-79
2024/01/18 12:46:35;;;;;;;0.85;0.10;;;;;;;;;;5139983;27;20078;-79
2024/01/18 12:49:02;;;;;;;0.75;0.00;;;;;;;;;;5139888;27;20051;-79
2024/01/18 12:51:28;;;;;;;0.50;0.10;;;;;;;;;;5140067;27;20051;-79
2024/01/18 12:53:55;;;;;;;1.17;0.10;;;;;;;;;;5121691;27;20057;-79
2024/01/18 12:56:21;;;;;;;1.73;0.10;;;;;;;;;;5157869;27;20039;-79
2024/01/18 12:58:48;;;;;;;0.40;0.10;;;;;;;;;;5139876;27;20130;-79
2024/01/18 13:01:33;;;;;;;0.90;0.10;;;;;;;;;;5158390;27;20095;-79
2024/01/18 13:04:09;;;;;;;1.60;0.10;;;;;;;;;;5122651;27;20082;-79
2024/01/18 13:06:35;;;;;;;0.35;0.10;;;;;;;;;;5123084;27;20613;-79
2024/01/18 13:09:01;;;;;;;0.85;0.10;;;;;;;;;;5139894;27;20047;-79
2024/01/18 13:11:27;;;;;;;2.08;0.10;;;;;;;;;;5123644;27;20046;-79
2024/01/18 13:13:54;;;;;;;2.22;0.10;;;;;;;;;;5139868;27;20057;-79
2024/01/18 13:16:23;;;;;;;1.23;0.10;;;;;;;;;;5139692;27;20394;-79
2024/01/18 13:18:49;;;;;;;2.10;0.10;;;;;;;;;;5139087;27;20490;-79
2024/01/18 13:21:15;;;;;;;2.15;0.10;;;;;;;;;;5158094;27;20094;-79
2024/01/18 13:23:41;;;;;;;1.52;0.10;;;;;;;;;;5122514;27;20050;-79
2024/01/18 13:26:07;;;;;;;2.30;0.10;;;;;;;;;;5157865;27;20122;-79
2024/01/18 13:28:33;;;;;;;1.25;0.08;;;;;;;;;;5139580;27;20470;-79
2024/01/18 13:30:59;;;;;;;0.50;0.10;;;;;;;;;;5139608;27;20125;-79
2024/01/18 13:33:26;;;;;;;1.05;0.10;;;;;;;;;;5139549;27;20401;-79
2024/01/18 13:35:52;;;;;;;4.03;0.10;;;;;;;;;;5140020;27;20450;-79
2024/01/18 13:38:18;;;;;;;0.28;0.00;;;;;;;;;;5139535;27;20043;-79
2024/01/18 13:40:44;;;;;;;1.90;0.08;;;;;;;;;;5139343;27;20090;-79
2024/01/18 13:43:10;;;;;;;2.55;0.10;;;;;;;;;;5139125;27;20500;-79
2024/01/18 13:45:36;;;;;;;1.48;0.10;;;;;;;;;;5157250;27;20443;-79
2024/01/18 13:48:02;;;;;;;1.95;0.10;;;;;;;;;;5139136;27;20435;-79
2024/01/18 13:50:28;;;;;;;1.88;0.13;;;;;;;;;;5157385;27;20039;-79
2024/01/18 13:52:55;;;;;;;1.27;0.10;;;;;;;;;;5149895;27;20501;-78
2024/01/18 13:55:21;;;;;;;1.30;0.10;;;;;;;;;;5117972;27;20486;-79
2024/01/18 13:57:47;;;;;;;2.65;0.20;;;;;;;;;;5117243;27;20448;-79
2024/01/18 14:00:14;;;;;;;1.90;0.10;;;;;;;;;;5136177;27;20090;-80
2024/01/18 14:02:40;;;;;;;1.85;0.10;;;;;;;;;;5117417;27;20134;-79
2024/01/18 14:05:06;;;;;;;1.73;0.10;;;;;;;;;;5117287;27;20047;-79
2024/01/18 14:07:32;;;;;;;0.88;0.03;;;;;;;;;;5100700;27;20035;-79
2024/01/18 14:09:58;;;;;;;0.85;0.10;;;;;;;;;;5101102;27;20118;-79
2024/01/18 14:12:27;;;;;;;1.25;0.20;;;;;;;;;;5117956;27;20043;-80
2024/01/18 14:14:53;;;;;;;1.67;0.10;;;;;;;;;;5101237;27;20039;-79
2024/01/18 14:17:19;;;;;;;1.30;0.10;;;;;;;;;;5117130;27;20043;-80
2024/01/18 14:19:45;;;;;;;2.25;0.10;;;;;;;;;;5135337;27;20136;-80
2024/01/18 14:22:12;;;;;;;0.88;0.10;;;;;;;;;;5100957;27;20082;-80
2024/01/18 14:24:39;;;;;;;0.38;0.10;;;;;;;;;;5116663;27;20125;-80
2024/01/18 14:27:05;;;;;;;2.83;0.10;;;;;;;;;;5125042;27;20047;-79
2024/01/18 14:29:31;;;;;;;4.35;0.20;;;;;;;;;;5100995;27;20122;-80
2024/01/18 14:31:57;;;;;;;0.70;0.10;;;;;;;;;;5117070;27;20039;-80
2024/01/18 14:34:23;;;;;;;0.77;0.13;;;;;;;;;;5117063;27;20043;-79